CheckWX is a tool to help pilots better visualize weather data.  It is not intended as a substitute for an official pre-flight weather briefing.

07:38:49 UTC

ETIC TAF
Grafenwohr Army Air Field Airport
Germany
TAF ETIC 190613Z 1906/2012 18009KT 9999 FEW040 SCT100 QNH2978INS TEMPO 1911/1916 8000 -SHRA SCT040 BKN050 BECMG 1918/1919 VRB06KT 9999 FEW100 QNH2981INS TEMPO 1922/2000 18010G15KT BECMG 2000/2001 VRB06KT 9999 FEW040 SCT050 QNH2982INS BECMG 2004/2005 VRB06KT 8000 -SHRA FEW030 SCT080 QNH2986INS TX28/1914Z TN14/2003Z

Jun-19@
06:00 UTC

Jun-19 @ 06:00 UTC

Jun-19@
18:00 UTC

Jun-19 @ 18:00 UTC

TAF ETIC 190613Z 1906/2012 18009KT 9999 FEW040 SCT100 QNH2978INS
Wind
  • 180° at 9 KTS
Cloud Levels
  • Few at 4,000' AGL
  • Scattered at 10,000' AGL

Jun-19@
11:00 UTC

Jun-19 @ 11:00 UTC

Jun-19@
16:00 UTC

Jun-19 @ 16:00 UTC

TEMPO 1911/1916 8000 -SHRA SCT040 BKN050

Temporary

Temporary Changes expected for less than half the time period

Conditions
Light Rain
Cloud Levels
  • Scattered at 4,000' AGL
  • Broken at 5,000' AGL

Jun-19@
18:00 UTC

Jun-19 @ 18:00 UTC

Jun-20@
00:00 UTC

Jun-20 @ 00:00 UTC

BECMG 1918/1919 VRB06KT 9999 FEW100 QNH2981INS

Becoming

Becoming Conditions expected by Wed, Jun 19, 2019 @ 19:00 UTC

Wind
  • Variable at 6 KTS
Cloud Levels
  • Few at 10,000' AGL

Jun-19@
22:00 UTC

Jun-19 @ 22:00 UTC

Jun-20@
00:00 UTC

Jun-20 @ 00:00 UTC

TEMPO 1922/2000 18010G15KT

Temporary

Temporary Changes expected for less than half the time period

Wind
  • 180° at 10 KTS
  • {Gusting to 15 KTS

Jun-20@
00:00 UTC

Jun-20 @ 00:00 UTC

Jun-20@
04:00 UTC

Jun-20 @ 04:00 UTC

BECMG 2000/2001 VRB06KT 9999 FEW040 SCT050 QNH2982INS

Becoming

Becoming Conditions expected by Thu, Jun 20, 2019 @ 01:00 UTC

Wind
  • Variable at 6 KTS
Cloud Levels
  • Few at 4,000' AGL
  • Scattered at 5,000' AGL

Jun-20@
04:00 UTC

Jun-20 @ 04:00 UTC

Jun-20@
12:00 UTC

Jun-20 @ 12:00 UTC

BECMG 2004/2005 VRB06KT 8000 -SHRA FEW030 SCT080 QNH2986INS TX28/1914Z TN14/2003Z

Becoming

Becoming Conditions expected by Thu, Jun 20, 2019 @ 05:00 UTC

Wind
  • Variable at 6 KTS
Conditions
Light Rain
Cloud Levels
  • Few at 3,000' AGL
  • Scattered at 8,000' AGL